Time;durP1;ratioP1;P1;durP2;ratioP2;P2;SDS_P1;SDS_P2;PMS_P1;PMS_P2;Temp;Humidity;BMP_temperature;BMP_pressure;BME280_temperature;BME280_humidity;BME280_pressure;Samples;Min_cycle;Max_cycle;Signal;HPM_P1;HPM_P2
2023/09/26 00:00:42;;;;;;;17.98;8.60;;;20.80;62.70;;;;;;5011934;28;20073;-60
2023/09/26 00:03:07;;;;;;;11.05;7.60;;;20.80;62.90;;;;;;5012124;28;20060;-59
2023/09/26 00:05:33;;;;;;;11.80;7.28;;;20.80;63.00;;;;;;5012033;28;20500;-60
2023/09/26 00:08:03;;;;;;;10.52;7.50;;;20.70;62.90;;;;;;5012309;28;20589;-60
2023/09/26 00:10:30;;;;;;;8.40;6.63;;;20.70;62.50;;;;;;5013447;28;20108;-60
2023/09/26 00:12:56;;;;;;;10.73;7.47;;;20.60;62.20;;;;;;5013889;28;20026;-60
2023/09/26 00:15:22;;;;;;;10.13;7.55;;;20.60;61.90;;;;;;5013664;28;20390;-60
2023/09/26 00:17:47;;;;;;;8.93;7.78;;;20.60;62.00;;;;;;5013943;28;20469;-61
2023/09/26 00:20:22;;;;;;;11.77;7.88;;;20.60;62.40;;;;;;5013700;28;20037;-59
2023/09/26 00:22:48;;;;;;;9.38;7.43;;;20.60;62.30;;;;;;5013778;28;20033;-60
2023/09/26 00:25:13;;;;;;;11.13;7.90;;;20.50;61.50;;;;;;5011690;28;20030;-60
2023/09/26 00:27:39;;;;;;;10.18;7.38;;;20.50;60.90;;;;;;5012133;28;20102;-60
2023/09/26 00:30:05;;;;;;;9.77;7.75;;;20.50;60.70;;;;;;5011734;28;20034;-58
2023/09/26 00:32:32;;;;;;;13.27;8.18;;;20.50;61.40;;;;;;5011675;28;20104;-60
2023/09/26 00:34:57;;;;;;;10.55;7.70;;;20.50;61.70;;;;;;5011756;28;20022;-59
2023/09/26 00:37:23;;;;;;;14.50;8.82;;;20.50;62.60;;;;;;5012169;28;20386;-60
2023/09/26 00:39:48;;;;;;;15.40;8.07;;;20.50;63.00;;;;;;5013031;28;20030;-60
2023/09/26 00:42:14;;;;;;;12.85;8.70;;;20.50;62.70;;;;;;5013081;28;20073;-60
2023/09/26 00:44:40;;;;;;;10.35;7.38;;;20.40;62.20;;;;;;5013537;28;20026;-60
2023/09/26 00:47:05;;;;;;;12.45;8.18;;;20.40;61.90;;;;;;5013086;28;20108;-56
2023/09/26 00:49:31;;;;;;;15.07;7.97;;;20.40;61.70;;;;;;5012291;28;20022;-60
2023/09/26 00:52:00;;;;;;;10.07;8.27;;;20.40;61.50;;;;;;5013010;28;20455;-60
2023/09/26 00:54:26;;;;;;;9.98;7.68;;;20.40;61.40;;;;;;5013281;28;20092;-59
2023/09/26 00:56:52;;;;;;;14.63;8.02;;;20.40;61.40;;;;;;5012948;28;20030;-60
2023/09/26 00:59:19;;;;;;;11.10;7.32;;;20.40;61.30;;;;;;5012776;28;20406;-60
2023/09/26 01:01:48;;;;;;;10.25;8.05;;;20.30;61.00;;;;;;5012716;28;20030;-60
2023/09/26 01:04:15;;;;;;;12.80;7.88;;;20.40;60.40;;;;;;5012885;28;20536;-60
2023/09/26 01:06:41;;;;;;;12.02;8.38;;;20.40;59.90;;;;;;5012736;28;20022;-60
2023/09/26 01:09:09;;;;;;;14.50;8.02;;;20.30;59.50;;;;;;5012951;28;20417;-60
2023/09/26 01:11:35;;;;;;;11.07;8.10;;;20.30;59.40;;;;;;4995056;28;20118;-60
2023/09/26 01:14:01;;;;;;;12.75;8.50;;;20.30;59.60;;;;;;5013191;28;20022;-60
2023/09/26 01:16:27;;;;;;;12.32;8.45;;;20.30;59.70;;;;;;5012630;28;20037;-59
2023/09/26 01:18:52;;;;;;;13.18;9.00;;;20.30;59.70;;;;;;5012593;28;20490;-60
2023/09/26 01:21:18;;;;;;;11.70;8.32;;;20.30;59.90;;;;;;5012814;28;20030;-60
2023/09/26 01:23:49;;;;;;;20.83;7.90;;;20.30;59.90;;;;;;5012480;28;20442;-59
2023/09/26 01:26:15;;;;;;;13.70;8.07;;;20.30;60.30;;;;;;5012496;28;20465;-60
2023/09/26 01:28:41;;;;;;;12.35;8.57;;;20.30;60.90;;;;;;5012382;28;20045;-60
2023/09/26 01:31:06;;;;;;;10.82;8.35;;;20.30;61.10;;;;;;5012365;28;20048;-60
2023/09/26 01:33:32;;;;;;;11.57;8.23;;;20.30;61.40;;;;;;5012291;28;20084;-60
2023/09/26 01:35:57;;;;;;;10.35;7.95;;;20.30;61.50;;;;;;5012513;28;20030;-60
2023/09/26 01:38:23;;;;;;;9.88;7.80;;;20.30;61.40;;;;;;5012316;28;20105;-60
2023/09/26 01:40:49;;;;;;;12.60;7.95;;;20.30;61.30;;;;;;5011983;28;20113;-60
2023/09/26 01:43:15;;;;;;;9.18;7.80;;;20.30;61.10;;;;;;5012007;28;20488;-60
2023/09/26 01:45:40;;;;;;;11.38;7.22;;;20.30;60.80;;;;;;5012240;28;20032;-59
2023/09/26 01:48:06;;;;;;;9.88;7.78;;;20.20;60.30;;;;;;5027178;28;20034;-57
2023/09/26 01:50:35;;;;;;;11.30;8.40;;;20.20;60.40;;;;;;5011957;28;20034;-60
2023/09/26 01:53:01;;;;;;;14.20;7.88;;;20.20;60.70;;;;;;5011844;28;20022;-60
2023/09/26 01:55:26;;;;;;;14.70;8.68;;;20.20;60.90;;;;;;5011874;28;20140;-60
2023/09/26 01:57:52;;;;;;;9.77;7.93;;;20.20;61.00;;;;;;5011992;28;20113;-60
2023/09/26 02:00:19;;;;;;;11.80;9.05;;;20.20;60.90;;;;;;5011136;28;20058;-59
2023/09/26 02:02:50;;;;;;;10.45;8.07;;;20.20;60.80;;;;;;5011851;28;20038;-60
2023/09/26 02:05:21;;;;;;;9.75;7.53;;;20.20;60.90;;;;;;4994031;28;20033;-60
2023/09/26 02:07:47;;;;;;;12.02;7.97;;;20.10;61.00;;;;;;5011808;28;20026;-60
2023/09/26 02:10:14;;;;;;;11.50;8.35;;;20.10;61.10;;;;;;5011726;28;20037;-58
2023/09/26 02:12:44;;;;;;;11.15;7.53;;;20.10;60.90;;;;;;5011649;28;20026;-60
2023/09/26 02:15:11;;;;;;;10.20;7.80;;;20.10;60.90;;;;;;5011851;28;20474;-60
2023/09/26 02:17:38;;;;;;;12.43;8.40;;;20.10;61.10;;;;;;5011840;28;20466;-60
2023/09/26 02:20:08;;;;;;;11.00;8.95;;;20.00;61.30;;;;;;5011666;28;20018;-60
2023/09/26 02:22:37;;;;;;;11.90;7.70;;;20.00;61.80;;;;;;5011812;28;20037;-58
2023/09/26 02:25:02;;;;;;;13.60;9.13;;;20.00;62.10;;;;;;5011780;28;20108;-60
2023/09/26 02:27:28;;;;;;;31.35;10.82;;;20.00;62.40;;;;;;5011760;28;20097;-60
2023/09/26 02:29:54;;;;;;;12.35;8.13;;;20.00;62.40;;;;;;5026617;28;20597;-60
2023/09/26 02:32:19;;;;;;;15.32;8.65;;;20.00;62.60;;;;;;5011664;28;20029;-60
2023/09/26 02:34:45;;;;;;;10.88;8.18;;;19.90;62.50;;;;;;5011612;28;20057;-60
2023/09/26 02:37:11;;;;;;;11.95;8.75;;;19.90;62.60;;;;;;5011352;28;20056;-60
2023/09/26 02:39:36;;;;;;;13.68;8.60;;;19.90;62.70;;;;;;5011416;28;20030;-57
2023/09/26 02:42:02;;;;;;;11.68;8.32;;;19.90;62.60;;;;;;5011252;28;20042;-61
2023/09/26 02:44:28;;;;;;;11.73;8.38;;;19.90;63.00;;;;;;5011599;28;20056;-60
2023/09/26 02:46:54;;;;;;;11.85;8.75;;;19.90;61.80;;;;;;5011748;28;20053;-61
2023/09/26 02:49:19;;;;;;;11.90;8.60;;;19.90;61.70;;;;;;5011227;28;20026;-58
2023/09/26 02:51:45;;;;;;;12.73;8.90;;;19.90;62.10;;;;;;5011510;28;20026;-61
2023/09/26 02:54:11;;;;;;;13.35;8.35;;;19.80;62.30;;;;;;5011255;28;20084;-61
2023/09/26 02:56:36;;;;;;;13.80;9.27;;;19.80;62.60;;;;;;5011267;28;20030;-61
2023/09/26 02:59:02;;;;;;;12.90;9.30;;;19.80;63.30;;;;;;5010979;28;20406;-61
2023/09/26 03:01:27;;;;;;;13.65;9.15;;;19.70;62.80;;;;;;5011419;28;20025;-61
2023/09/26 03:03:54;;;;;;;12.85;9.48;;;19.70;63.00;;;;;;5011092;28;20029;-61
2023/09/26 03:06:20;;;;;;;13.25;9.77;;;19.70;63.20;;;;;;5011459;28;20385;-58
2023/09/26 03:08:45;;;;;;;13.43;9.48;;;19.70;63.40;;;;;;5011180;28;20026;-61
2023/09/26 03:11:11;;;;;;;12.73;9.73;;;19.70;63.50;;;;;;5011074;28;20042;-61
2023/09/26 03:13:37;;;;;;;11.57;9.13;;;19.70;63.60;;;;;;5014622;28;20065;-59
2023/09/26 03:16:04;;;;;;;14.32;9.88;;;19.60;63.60;;;;;;5015218;28;20042;-61
2023/09/26 03:18:30;;;;;;;14.55;10.07;;;19.60;63.40;;;;;;5014989;28;20029;-58
2023/09/26 03:20:56;;;;;;;12.80;9.52;;;19.60;63.70;;;;;;5014866;28;20497;-58
2023/09/26 03:23:22;;;;;;;12.23;10.00;;;19.60;63.80;;;;;;5015039;28;20034;-59
2023/09/26 03:25:48;;;;;;;18.75;9.77;;;19.60;64.20;;;;;;5014914;28;20477;-58
2023/09/26 03:28:14;;;;;;;10.43;9.23;;;19.50;64.30;;;;;;5014658;28;20112;-59
2023/09/26 03:30:41;;;;;;;13.73;9.90;;;19.50;64.40;;;;;;5014503;28;20495;-58
2023/09/26 03:33:06;;;;;;;14.52;9.32;;;19.50;64.70;;;;;;5014452;28;20061;-58
2023/09/26 03:35:32;;;;;;;13.43;9.98;;;19.50;64.90;;;;;;5014851;28;20061;-59
2023/09/26 03:37:58;;;;;;;12.68;10.45;;;19.50;65.10;;;;;;5014520;28;20022;-59
2023/09/26 03:40:23;;;;;;;12.95;9.82;;;19.40;65.40;;;;;;5014377;28;20041;-59
2023/09/26 03:42:49;;;;;;;15.52;10.23;;;19.40;65.80;;;;;;5014247;28;20080;-59
2023/09/26 03:45:14;;;;;;;13.40;9.93;;;19.40;66.20;;;;;;5013851;28;20088;-59
2023/09/26 03:47:40;;;;;;;15.20;9.88;;;19.40;66.40;;;;;;5012508;28;20036;-59
2023/09/26 03:50:07;;;;;;;15.68;10.15;;;19.40;66.40;;;;;;5012280;28;20390;-59
2023/09/26 03:52:33;;;;;;;11.90;9.63;;;19.30;66.50;;;;;;5012253;28;20061;-59
2023/09/26 03:54:58;;;;;;;15.68;9.68;;;19.30;66.60;;;;;;5012227;28;20053;-60
2023/09/26 03:57:24;;;;;;;18.58;10.43;;;19.30;66.70;;;;;;5012108;28;20108;-60
2023/09/26 03:59:50;;;;;;;13.80;10.15;;;19.20;66.80;;;;;;5011817;28;20104;-59
2023/09/26 04:02:16;;;;;;;14.80;10.60;;;19.20;67.10;;;;;;5011933;28;20030;-60
2023/09/26 04:04:43;;;;;;;12.23;9.95;;;19.20;67.40;;;;;;5013618;28;20112;-60
2023/09/26 04:07:08;;;;;;;12.98;10.10;;;19.20;67.60;;;;;;5013898;28;20026;-60
2023/09/26 04:09:34;;;;;;;16.98;10.07;;;19.20;67.70;;;;;;5013936;28;20026;-60
2023/09/26 04:12:04;;;;;;;11.80;9.55;;;19.20;67.90;;;;;;5013988;28;20058;-60
2023/09/26 04:14:30;;;;;;;14.73;10.63;;;19.20;68.10;;;;;;5013619;28;20044;-59
2023/09/26 04:16:56;;;;;;;14.63;10.25;;;19.20;68.30;;;;;;5013780;28;20037;-59
2023/09/26 04:19:22;;;;;;;18.40;10.75;;;19.20;68.40;;;;;;5013925;28;20053;-60
2023/09/26 04:21:48;;;;;;;15.90;10.10;;;19.20;68.70;;;;;;5013677;28;20057;-60
2023/09/26 04:24:14;;;;;;;15.38;10.27;;;19.20;69.00;;;;;;5012689;28;20454;-60
2023/09/26 04:26:40;;;;;;;15.27;10.52;;;19.20;68.90;;;;;;5014119;28;20097;-60
2023/09/26 04:29:05;;;;;;;16.98;11.07;;;19.20;69.00;;;;;;5012952;28;20036;-60
2023/09/26 04:31:31;;;;;;;17.90;10.40;;;19.20;69.30;;;;;;5013442;28;20033;-60
2023/09/26 04:33:57;;;;;;;16.80;11.05;;;19.20;69.40;;;;;;5013431;28;20037;-60
2023/09/26 04:36:23;;;;;;;15.15;10.65;;;19.30;69.70;;;;;;5013641;28;20168;-60
2023/09/26 04:38:48;;;;;;;14.95;10.70;;;19.30;69.60;;;;;;5013344;28;20030;-60
2023/09/26 04:41:14;;;;;;;15.63;10.80;;;19.30;69.90;;;;;;5013575;28;20051;-60
2023/09/26 04:43:40;;;;;;;14.40;10.38;;;19.40;69.90;;;;;;5013551;28;20026;-61
2023/09/26 04:46:17;;;;;;;14.70;10.38;;;19.40;70.10;;;;;;5013260;28;20030;-60
2023/09/26 04:48:44;;;;;;;11.52;10.32;;;19.40;69.90;;;;;;5013194;28;20025;-59
2023/09/26 04:51:12;;;;;;;17.85;10.68;;;19.40;70.10;;;;;;5013090;28;20037;-60
2023/09/26 04:53:37;;;;;;;14.98;10.30;;;19.40;70.00;;;;;;5013450;28;20032;-60
2023/09/26 04:56:04;;;;;;;16.67;10.50;;;19.50;70.50;;;;;;5012946;28;20042;-59
2023/09/26 04:58:30;;;;;;;14.68;10.35;;;19.50;69.90;;;;;;5012274;28;20029;-57
2023/09/26 05:00:57;;;;;;;17.65;11.18;;;19.60;69.90;;;;;;5010761;28;20056;-58
2023/09/26 05:03:23;;;;;;;14.95;10.55;;;19.60;69.90;;;;;;5011158;28;20132;-57
2023/09/26 05:05:49;;;;;;;17.40;10.60;;;19.60;70.00;;;;;;5011405;28;20552;-58
2023/09/26 05:08:15;;;;;;;12.70;10.60;;;19.60;70.10;;;;;;5012234;28;20032;-58
2023/09/26 05:10:41;;;;;;;12.38;10.45;;;19.60;70.10;;;;;;5011104;28;20041;-57
2023/09/26 05:13:07;;;;;;;14.05;10.25;;;19.70;70.10;;;;;;5010691;28;20026;-58
2023/09/26 05:15:34;;;;;;;13.95;10.48;;;19.70;70.00;;;;;;5010945;28;20403;-58
2023/09/26 05:18:01;;;;;;;20.35;11.32;;;19.70;70.10;;;;;;5010868;28;20037;-58
2023/09/26 05:20:26;;;;;;;13.23;10.27;;;19.70;69.90;;;;;;5010619;28;20030;-58
2023/09/26 05:22:52;;;;;;;15.95;10.88;;;19.80;70.10;;;;;;5010504;28;20433;-59
2023/09/26 05:25:18;;;;;;;17.00;10.65;;;19.80;70.30;;;;;;5025732;28;20327;-58
2023/09/26 05:27:44;;;;;;;11.77;10.00;;;19.80;70.20;;;;;;5010528;28;20025;-58
2023/09/26 05:30:12;;;;;;;13.00;10.15;;;19.80;70.10;;;;;;5010871;28;20022;-59
2023/09/26 05:32:39;;;;;;;17.27;11.13;;;19.90;70.00;;;;;;5010674;28;20036;-59
2023/09/26 05:35:06;;;;;;;14.32;10.55;;;19.90;70.00;;;;;;5010068;28;20038;-58
2023/09/26 05:37:32;;;;;;;16.13;11.23;;;19.90;70.00;;;;;;5010546;28;20513;-59
2023/09/26 05:39:58;;;;;;;14.65;11.25;;;19.90;70.20;;;;;;5011432;28;20029;-60
2023/09/26 05:42:24;;;;;;;17.42;10.73;;;19.90;70.40;;;;;;5012023;28;20038;-59
2023/09/26 05:44:49;;;;;;;14.95;11.38;;;20.00;70.50;;;;;;5011266;28;20084;-60
2023/09/26 05:47:15;;;;;;;12.45;10.68;;;20.00;70.50;;;;;;5010680;28;20034;-60
2023/09/26 05:49:41;;;;;;;16.13;11.50;;;20.00;70.50;;;;;;5010114;28;20543;-59
2023/09/26 05:52:06;;;;;;;15.70;10.73;;;20.00;70.50;;;;;;5010055;28;20060;-60
2023/09/26 05:54:33;;;;;;;20.45;11.63;;;20.00;70.40;;;;;;5009975;28;20490;-59
2023/09/26 05:56:59;;;;;;;22.20;11.75;;;20.10;70.80;;;;;;5010201;28;20042;-59
2023/09/26 05:59:25;;;;;;;13.00;10.75;;;20.10;70.80;;;;;;5009353;28;20115;-60
2023/09/26 06:01:51;;;;;;;18.38;10.80;;;20.60;70.50;;;;;;5010777;28;20030;-60
2023/09/26 06:04:16;;;;;;;14.50;10.57;;;21.10;69.30;;;;;;5009786;28;20037;-57
2023/09/26 06:06:42;;;;;;;15.73;11.68;;;21.50;68.00;;;;;;5009644;28;20844;-59
2023/09/26 06:09:08;;;;;;;15.02;10.85;;;21.70;67.20;;;;;;5008671;28;20108;-59
2023/09/26 06:11:34;;;;;;;15.90;10.57;;;22.00;66.40;;;;;;5009185;28;20092;-59
2023/09/26 06:14:00;;;;;;;14.55;11.38;;;22.30;65.60;;;;;;5008785;28;20147;-60
2023/09/26 06:16:25;;;;;;;16.95;11.43;;;22.30;65.30;;;;;;5009681;28;20029;-60
2023/09/26 06:18:52;;;;;;;17.50;11.25;;;22.30;65.30;;;;;;5007925;28;20064;-58
2023/09/26 06:21:18;;;;;;;11.80;10.02;;;22.20;65.80;;;;;;5008149;28;20421;-59
2023/09/26 06:23:44;;;;;;;15.20;11.23;;;22.00;66.00;;;;;;5009470;28;20029;-60
2023/09/26 06:26:10;;;;;;;15.00;11.25;;;21.90;66.50;;;;;;5008197;28;20513;-59
2023/09/26 06:28:35;;;;;;;14.45;10.77;;;21.70;66.70;;;;;;5007383;28;20022;-57
2023/09/26 06:31:05;;;;;;;13.85;10.55;;;21.60;67.00;;;;;;5009087;28;20521;-59
2023/09/26 06:33:31;;;;;;;15.73;11.25;;;21.50;67.40;;;;;;5009993;28;20349;-59
2023/09/26 06:35:57;;;;;;;16.23;11.25;;;21.40;67.80;;;;;;5009871;28;20104;-60
2023/09/26 06:38:23;;;;;;;16.05;11.55;;;21.40;68.20;;;;;;5010257;28;20033;-60
2023/09/26 06:40:59;;;;;;;17.25;11.48;;;21.30;68.00;;;;;;5011425;28;20033;-58
2023/09/26 06:43:24;;;;;;;17.13;11.25;;;21.30;68.00;;;;;;5009446;28;20257;-60
2023/09/26 06:45:50;;;;;;;14.95;11.23;;;21.20;68.30;;;;;;5011279;28;20541;-59
2023/09/26 06:48:15;;;;;;;17.85;11.57;;;21.20;68.50;;;;;;5014353;28;20028;-57
2023/09/26 06:50:44;;;;;;;13.63;11.35;;;21.20;68.80;;;;;;5015358;28;20037;-59
2023/09/26 06:53:10;;;;;;;17.52;11.93;;;21.20;69.00;;;;;;5015245;28;20029;-60
2023/09/26 06:55:39;;;;;;;15.35;11.40;;;21.20;68.90;;;;;;5015228;28;20548;-59
2023/09/26 06:58:05;;;;;;;17.75;12.02;;;21.20;68.80;;;;;;5015238;28;20052;-60
2023/09/26 07:00:31;;;;;;;14.20;11.63;;;21.20;68.30;;;;;;5013533;28;20049;-60
2023/09/26 07:02:57;;;;;;;15.48;12.25;;;21.20;68.20;;;;;;5013219;28;20346;-59
2023/09/26 07:05:26;;;;;;;16.95;10.82;;;21.20;68.00;;;;;;5012525;28;20030;-59
2023/09/26 07:07:51;;;;;;;15.93;11.57;;;21.30;68.00;;;;;;5012849;28;20121;-56
2023/09/26 07:10:17;;;;;;;19.63;11.25;;;21.30;67.90;;;;;;5013005;28;20112;-58
2023/09/26 07:12:44;;;;;;;15.55;10.90;;;21.30;67.80;;;;;;5013121;28;20398;-59
2023/09/26 07:15:14;;;;;;;15.10;11.70;;;21.30;67.80;;;;;;5013673;28;20029;-59
2023/09/26 07:17:40;;;;;;;14.38;12.18;;;21.30;68.00;;;;;;5002789;28;20402;-59
2023/09/26 07:20:09;;;;;;;17.15;11.95;;;21.30;68.00;;;;;;4992808;28;20048;-56
2023/09/26 07:22:35;;;;;;;15.52;11.23;;;21.30;68.00;;;;;;5008055;28;20050;-59
2023/09/26 07:25:01;;;;;;;15.43;11.25;;;21.30;67.90;;;;;;5010531;28;20393;-59
2023/09/26 07:27:26;;;;;;;14.15;10.82;;;21.30;67.90;;;;;;5010533;28;20026;-58
2023/09/26 07:29:55;;;;;;;19.40;11.20;;;21.30;68.00;;;;;;5008283;28;20080;-59
2023/09/26 07:32:20;;;;;;;18.73;11.30;;;21.30;68.30;;;;;;5005545;28;20029;-58
2023/09/26 07:34:46;;;;;;;15.85;11.18;;;21.40;68.30;;;;;;5010968;28;20030;-56
2023/09/26 07:37:12;;;;;;;16.48;11.65;;;21.30;68.20;;;;;;5010120;28;20545;-56
2023/09/26 07:39:37;;;;;;;14.43;11.07;;;21.30;67.80;;;;;;5011847;28;20026;-59
2023/09/26 07:42:03;;;;;;;16.23;11.35;;;21.30;67.60;;;;;;5010230;28;20061;-59
2023/09/26 07:44:29;;;;;;;18.70;11.25;;;21.40;67.70;;;;;;5010152;28;20571;-58
2023/09/26 07:46:55;;;;;;;13.38;10.55;;;21.40;67.70;;;;;;5009488;28;20042;-61
2023/09/26 07:49:20;;;;;;;15.35;10.18;;;21.40;67.30;;;;;;5011936;28;20022;-61
2023/09/26 07:51:48;;;;;;;13.18;10.10;;;21.50;66.30;;;;;;5005687;28;20562;-61
2023/09/26 07:54:14;;;;;;;18.05;10.45;;;21.50;65.80;;;;;;5013028;28;20026;-61
2023/09/26 07:56:39;;;;;;;15.43;9.73;;;21.50;65.70;;;;;;5009521;28;20447;-61
2023/09/26 07:59:05;;;;;;;16.83;10.35;;;21.50;65.20;;;;;;5011624;28;20495;-61
2023/09/26 08:01:31;;;;;;;12.88;9.48;;;21.50;65.10;;;;;;5009255;28;20111;-61
2023/09/26 08:03:57;;;;;;;14.40;9.82;;;21.60;65.10;;;;;;5010604;28;20041;-61
2023/09/26 08:06:22;;;;;;;13.13;10.18;;;21.60;65.10;;;;;;5011927;28;20037;-61
2023/09/26 08:08:48;;;;;;;11.73;10.05;;;21.60;64.80;;;;;;5010551;28;20037;-61
2023/09/26 08:11:14;;;;;;;13.52;9.23;;;21.60;64.70;;;;;;5012174;28;20462;-60
2023/09/26 08:13:40;;;;;;;14.77;10.02;;;21.60;64.50;;;;;;5008674;28;20088;-61
2023/09/26 08:16:05;;;;;;;15.68;9.75;;;21.60;64.20;;;;;;5010478;28;20441;-61
2023/09/26 08:18:31;;;;;;;14.77;9.90;;;21.60;64.00;;;;;;5009639;28;20038;-61
2023/09/26 08:20:58;;;;;;;12.05;9.18;;;21.60;63.70;;;;;;5013093;28;20113;-61
2023/09/26 08:23:30;;;;;;;17.80;10.25;;;21.70;63.60;;;;;;5008500;28;20040;-61
2023/09/26 08:25:58;;;;;;;14.50;10.52;;;21.70;64.30;;;;;;5012480;28;20021;-60
2023/09/26 08:28:25;;;;;;;12.93;9.77;;;21.70;65.20;;;;;;5010755;28;20120;-61
2023/09/26 08:30:51;;;;;;;11.93;9.80;;;21.70;65.50;;;;;;5016023;28;20033;-61
2023/09/26 08:33:17;;;;;;;18.92;9.65;;;21.70;65.30;;;;;;5010854;28;20036;-61
2023/09/26 08:35:42;;;;;;;15.77;9.43;;;21.70;65.00;;;;;;5013333;28;20037;-61
2023/09/26 08:38:08;;;;;;;12.13;8.90;;;21.80;64.00;;;;;;5009963;28;20036;-60
2023/09/26 08:40:33;;;;;;;15.45;8.38;;;21.80;63.30;;;;;;5008449;28;20038;-60
2023/09/26 08:42:59;;;;;;;11.98;9.30;;;21.80;63.20;;;;;;5008591;28;20033;-61
2023/09/26 08:45:25;;;;;;;15.02;9.48;;;21.90;63.00;;;;;;5012276;28;20393;-60
2023/09/26 08:47:53;;;;;;;11.00;8.70;;;21.90;62.80;;;;;;5011174;28;20548;-59
2023/09/26 08:50:19;;;;;;;14.93;9.35;;;21.90;62.90;;;;;;5011774;28;20036;-61
2023/09/26 08:52:44;;;;;;;13.27;8.60;;;22.00;63.20;;;;;;5011222;28;20508;-58
2023/09/26 08:55:10;;;;;;;12.70;9.40;;;22.00;63.10;;;;;;5012042;28;20034;-61
2023/09/26 08:57:38;;;;;;;13.55;8.52;;;22.00;63.50;;;;;;5012776;28;20057;-61
2023/09/26 09:00:07;;;;;;;12.77;8.70;;;22.00;63.40;;;;;;5007337;28;20037;-61
2023/09/26 09:02:33;;;;;;;13.93;8.40;;;22.00;63.00;;;;;;5010107;28;20033;-59
2023/09/26 09:04:59;;;;;;;11.48;9.07;;;22.10;62.90;;;;;;5009665;28;20500;-61
2023/09/26 09:07:25;;;;;;;13.45;9.18;;;22.10;63.20;;;;;;5010678;28;20038;-60
2023/09/26 09:10:11;;;;;;;12.05;8.98;;;22.10;63.40;;;;;;5009327;28;20505;-61
2023/09/26 09:12:38;;;;;;;11.80;8.90;;;22.20;63.30;;;;;;5010572;28;20069;-61
2023/09/26 09:15:24;;;;;;;15.18;9.43;;;22.20;63.00;;;;;;5011498;28;20108;-61
2023/09/26 09:17:52;;;;;;;11.73;8.93;;;22.20;62.80;;;;;;5011956;28;20100;-61
2023/09/26 09:20:34;;;;;;;11.05;8.57;;;22.20;63.00;;;;;;5008953;28;20359;-61
2023/09/26 09:23:01;;;;;;;14.27;8.25;;;22.20;62.90;;;;;;5008937;28;20502;-60
2023/09/26 09:25:35;;;;;;;15.55;8.65;;;22.20;63.10;;;;;;5012070;28;20022;-61
2023/09/26 09:28:03;;;;;;;13.40;8.73;;;22.20;62.90;;;;;;5003146;28;20060;-61
2023/09/26 09:30:29;;;;;;;13.10;9.15;;;22.20;62.40;;;;;;5010359;28;20025;-61
2023/09/26 09:32:56;;;;;;;12.05;8.32;;;22.20;61.90;;;;;;5007959;28;20044;-59
2023/09/26 09:35:22;;;;;;;12.10;8.13;;;22.20;61.60;;;;;;5007305;28;20552;-62
2023/09/26 09:37:50;;;;;;;15.63;9.40;;;22.20;62.20;;;;;;5009099;28;20042;-61
2023/09/26 09:40:24;;;;;;;13.88;8.77;;;22.20;62.00;;;;;;5003268;28;20109;-61
2023/09/26 09:42:50;;;;;;;10.50;8.45;;;22.20;61.00;;;;;;4997923;28;20065;-60
2023/09/26 09:45:17;;;;;;;15.10;9.50;;;22.20;60.90;;;;;;5006463;28;20025;-61
2023/09/26 09:47:47;;;;;;;14.52;9.18;;;22.30;61.00;;;;;;5009683;28;20097;-61
2023/09/26 09:50:14;;;;;;;12.40;8.73;;;22.30;61.00;;;;;;5009743;28;20037;-61
2023/09/26 09:52:45;;;;;;;12.70;9.07;;;22.30;60.90;;;;;;5000838;28;20086;-61
2023/09/26 09:55:20;;;;;;;12.68;8.90;;;22.30;60.80;;;;;;5011631;28;20381;-61
2023/09/26 09:57:51;;;;;;;12.63;8.65;;;22.30;60.70;;;;;;5011843;28;20490;-58
2023/09/26 10:00:19;;;;;;;12.13;8.07;;;22.30;60.50;;;;;;5010808;28;20046;-61
2023/09/26 10:02:46;;;;;;;12.85;9.02;;;22.40;60.50;;;;;;5009695;28;20060;-61
2023/09/26 10:05:14;;;;;;;15.15;8.68;;;22.40;60.50;;;;;;5008314;28;20711;-61
2023/09/26 10:07:41;;;;;;;12.00;8.40;;;22.40;60.70;;;;;;5011592;28;20033;-61
2023/09/26 10:10:09;;;;;;;14.98;8.80;;;22.40;60.70;;;;;;5010516;28;20058;-61
2023/09/26 10:12:39;;;;;;;13.52;9.10;;;22.50;60.60;;;;;;5011702;28;20524;-61
2023/09/26 10:15:13;;;;;;;14.18;8.73;;;22.50;60.50;;;;;;5010238;28;20064;-61
2023/09/26 10:17:44;;;;;;;13.70;8.40;;;22.50;60.50;;;;;;5000235;28;20065;-61
2023/09/26 10:20:11;;;;;;;12.40;8.13;;;22.50;60.40;;;;;;5013081;28;20026;-61
2023/09/26 10:22:41;;;;;;;11.93;8.13;;;22.50;60.30;;;;;;5007895;28;20541;-61
2023/09/26 10:25:12;;;;;;;14.57;9.00;;;22.60;60.10;;;;;;5008022;28;20029;-61
2023/09/26 10:27:42;;;;;;;11.43;7.80;;;22.60;60.10;;;;;;5011663;28;20029;-61
2023/09/26 10:30:11;;;;;;;9.15;7.38;;;22.60;59.90;;;;;;5011389;28;20030;-61
2023/09/26 10:32:42;;;;;;;13.82;8.27;;;22.60;59.40;;;;;;5011581;28;20125;-61
2023/09/26 10:35:13;;;;;;;11.38;7.05;;;22.70;58.80;;;;;;5011691;28;20073;-61
2023/09/26 10:37:48;;;;;;;11.38;7.30;;;22.70;59.00;;;;;;5011601;28;20438;-61
2023/09/26 10:40:16;;;;;;;14.88;8.23;;;22.70;59.10;;;;;;5011581;28;20044;-61
2023/09/26 10:42:46;;;;;;;11.63;7.93;;;22.70;59.00;;;;;;5011408;28;20095;-61
2023/09/26 10:45:13;;;;;;;9.23;7.53;;;22.70;58.70;;;;;;5011335;28;20018;-61
2023/09/26 10:47:40;;;;;;;14.25;7.75;;;22.70;58.60;;;;;;5011229;28;20497;-60
2023/09/26 10:50:13;;;;;;;12.55;7.85;;;22.80;58.70;;;;;;5011575;28;20037;-58
2023/09/26 10:52:48;;;;;;;9.77;7.47;;;22.80;58.70;;;;;;5011547;28;20073;-60
2023/09/26 10:55:19;;;;;;;13.02;7.60;;;22.80;58.70;;;;;;5011281;28;20033;-59
2023/09/26 10:57:45;;;;;;;;;;;22.80;58.90;;;;;;5011284;28;20079;-60
2023/09/26 11:00:13;;;;;;;11.10;7.13;;;22.70;59.10;;;;;;5009545;28;20411;-61
2023/09/26 11:02:38;;;;;;;11.27;8.18;;;22.70;58.50;;;;;;5010324;28;20360;-61
2023/09/26 11:05:14;;;;;;;9.18;6.78;;;22.70;58.10;;;;;;5006728;28;20041;-61
2023/09/26 11:07:41;;;;;;;16.02;8.32;;;22.80;57.90;;;;;;5002885;28;20034;-57
2023/09/26 11:10:14;;;;;;;10.73;7.22;;;22.80;57.60;;;;;;5010969;28;20022;-61
2023/09/26 11:12:41;;;;;;;9.93;6.70;;;22.80;57.30;;;;;;5008756;28;20026;-59
2023/09/26 11:15:08;;;;;;;8.82;7.10;;;22.80;56.90;;;;;;5005480;28;20183;-61
2023/09/26 11:17:38;;;;;;;13.20;6.78;;;22.90;56.90;;;;;;5002681;28;20060;-61
2023/09/26 11:20:09;;;;;;;10.98;7.32;;;22.90;57.50;;;;;;5005260;28;20042;-60
2023/09/26 11:22:49;;;;;;;10.32;6.47;;;22.90;57.80;;;;;;5002327;28;20158;-61
2023/09/26 11:25:15;;;;;;;10.90;6.72;;;22.90;56.90;;;;;;5002643;28;20037;-61
2023/09/26 11:27:45;;;;;;;12.93;6.50;;;22.90;56.60;;;;;;5002793;28;20092;-61
2023/09/26 11:30:21;;;;;;;14.75;7.32;;;22.90;56.10;;;;;;5003254;28;20034;-60
2023/09/26 11:32:50;;;;;;;11.25;6.40;;;23.00;55.80;;;;;;5002497;28;20103;-61
2023/09/26 11:35:17;;;;;;;9.75;6.63;;;22.90;55.60;;;;;;5003894;28;20026;-60
2023/09/26 11:37:43;;;;;;;10.43;6.18;;;23.00;55.40;;;;;;4999531;28;20033;-60
2023/09/26 11:40:11;;;;;;;13.10;6.97;;;23.00;55.30;;;;;;5004664;28;20056;-61
2023/09/26 11:43:00;;;;;;;21.23;8.48;;;23.10;55.30;;;;;;5014117;28;20391;-61
2023/09/26 11:45:28;;;;;;;11.75;7.35;;;23.10;55.20;;;;;;5014485;28;20018;-61
2023/09/26 11:47:56;;;;;;;9.82;6.38;;;23.10;55.00;;;;;;5012695;28;20034;-61
2023/09/26 11:50:23;;;;;;;8.90;6.45;;;23.20;54.60;;;;;;5012498;28;20051;-61
2023/09/26 11:52:49;;;;;;;9.70;6.90;;;23.20;55.30;;;;;;5012327;28;20088;-61
2023/09/26 11:55:18;;;;;;;8.90;6.40;;;23.20;55.20;;;;;;5012548;28;20541;-60
2023/09/26 11:57:49;;;;;;;10.32;6.40;;;23.20;55.40;;;;;;5011677;28;20521;-61
2023/09/26 12:00:16;;;;;;;10.02;6.18;;;23.20;55.60;;;;;;5011981;28;20054;-61
2023/09/26 12:02:47;;;;;;;9.30;5.80;;;23.20;55.50;;;;;;5010811;28;20040;-61
2023/09/26 12:05:14;;;;;;;9.32;6.05;;;23.20;54.60;;;;;;5012045;28;20058;-61
2023/09/26 12:07:41;;;;;;;11.13;6.00;;;23.20;54.40;;;;;;5011938;28;20025;-61
2023/09/26 12:10:08;;;;;;;9.05;6.55;;;23.20;54.60;;;;;;5012137;28;20026;-61
2023/09/26 12:12:33;;;;;;;11.75;6.20;;;23.20;55.00;;;;;;5012159;28;20534;-60
2023/09/26 12:15:38;;;;;;;8.52;5.60;;;23.20;54.80;;;;;;5011797;28;20037;-61
2023/09/26 12:18:04;;;;;;;12.05;6.70;;;23.20;54.60;;;;;;4916285;29;20042;-61
2023/09/26 12:20:29;;;;;;;8.77;5.93;;;23.20;54.60;;;;;;4933924;29;20032;-61
2023/09/26 12:22:56;;;;;;;8.82;5.78;;;23.20;54.30;;;;;;4970943;28;20042;-61
2023/09/26 12:25:23;;;;;;;10.00;5.75;;;23.20;54.20;;;;;;5013785;28;20107;-61
2023/09/26 12:27:50;;;;;;;8.32;5.80;;;23.20;54.20;;;;;;5013530;28;20038;-61
2023/09/26 12:30:16;;;;;;;8.90;5.88;;;23.30;54.30;;;;;;5013677;28;20482;-61
2023/09/26 12:32:42;;;;;;;7.90;5.40;;;23.30;54.60;;;;;;5013789;28;20026;-61
2023/09/26 12:35:08;;;;;;;11.80;5.80;;;23.30;54.40;;;;;;5013714;28;20484;-61